sensor_id;sensor_type;location;lat;lon;timestamp;temperature;humidity
55642;DHT22;41509;53.108;6.100;2023-04-08T00:01:03;5.30;99.90
55642;DHT22;41509;53.108;6.100;2023-04-08T00:03:29;5.30;99.90
55642;DHT22;41509;53.108;6.100;2023-04-08T00:05:55;5.30;99.90
55642;DHT22;41509;53.108;6.100;2023-04-08T00:08:20;5.30;99.90
55642;DHT22;41509;53.108;6.100;2023-04-08T00:10:46;5.20;99.90
55642;DHT22;41509;53.108;6.100;2023-04-08T00:13:12;5.20;99.90
55642;DHT22;41509;53.108;6.100;2023-04-08T00:15:40;5.10;99.90
55642;DHT22;41509;53.108;6.100;2023-04-08T00:18:06;5.20;99.90
55642;DHT22;41509;53.108;6.100;2023-04-08T00:20:31;5.10;99.90
55642;DHT22;41509;53.108;6.100;2023-04-08T00:22:57;5.10;99.90
55642;DHT22;41509;53.108;6.100;2023-04-08T00:25:30;5.10;99.90
55642;DHT22;41509;53.108;6.100;2023-04-08T00:27:56;5.10;99.90
55642;DHT22;41509;53.108;6.100;2023-04-08T00:30:21;5.10;99.90
55642;DHT22;41509;53.108;6.100;2023-04-08T00:32:47;5.10;99.90
55642;DHT22;41509;53.108;6.100;2023-04-08T00:35:22;5.00;99.90
55642;DHT22;41509;53.108;6.100;2023-04-08T00:37:53;5.00;99.90
55642;DHT22;41509;53.108;6.100;2023-04-08T00:40:24;5.00;99.90
55642;DHT22;41509;53.108;6.100;2023-04-08T00:42:50;5.00;99.90
55642;DHT22;41509;53.108;6.100;2023-04-08T00:45:15;5.00;99.90
55642;DHT22;41509;53.108;6.100;2023-04-08T00:47:41;5.00;99.90
55642;DHT22;41509;53.108;6.100;2023-04-08T00:50:10;4.90;99.90
55642;DHT22;41509;53.108;6.100;2023-04-08T00:52:36;4.90;99.90
55642;DHT22;41509;53.108;6.100;2023-04-08T00:55:05;4.90;99.90
55642;DHT22;41509;53.108;6.100;2023-04-08T00:57:30;4.90;99.90
55642;DHT22;41509;53.108;6.100;2023-04-08T00:59:57;4.90;99.90
55642;DHT22;41509;53.108;6.100;2023-04-08T01:02:56;4.80;99.90
55642;DHT22;41509;53.108;6.100;2023-04-08T01:08:30;4.80;99.90
55642;DHT22;41509;53.108;6.100;2023-04-08T01:11:03;4.80;99.90
55642;DHT22;41509;53.108;6.100;2023-04-08T01:13:33;4.70;99.90
55642;DHT22;41509;53.108;6.100;2023-04-08T01:16:00;4.80;99.90
55642;DHT22;41509;53.108;6.100;2023-04-08T01:18:29;4.70;99.90
55642;DHT22;41509;53.108;6.100;2023-04-08T01:20:59;4.70;99.90
55642;DHT22;41509;53.108;6.100;2023-04-08T01:24:23;4.60;99.90
55642;DHT22;41509;53.108;6.100;2023-04-08T01:26:25;4.70;99.90
55642;DHT22;41509;53.108;6.100;2023-04-08T01:28:58;4.60;99.90
55642;DHT22;41509;53.108;6.100;2023-04-08T01:31:35;4.70;99.90
55642;DHT22;41509;53.108;6.100;2023-04-08T01:34:04;4.60;99.90
55642;DHT22;41509;53.108;6.100;2023-04-08T01:36:34;4.60;99.90
55642;DHT22;41509;53.108;6.100;2023-04-08T01:39:04;4.60;99.90
55642;DHT22;41509;53.108;6.100;2023-04-08T01:41:38;4.60;99.90
55642;DHT22;41509;53.108;6.100;2023-04-08T01:44:10;4.50;99.90
55642;DHT22;41509;53.108;6.100;2023-04-08T01:46:40;4.40;99.90
55642;DHT22;41509;53.108;6.100;2023-04-08T01:49:08;4.40;99.90
55642;DHT22;41509;53.108;6.100;2023-04-08T01:51:35;4.40;99.90
55642;DHT22;41509;53.108;6.100;2023-04-08T01:54:01;4.40;99.90
55642;DHT22;41509;53.108;6.100;2023-04-08T01:56:32;4.40;99.90
55642;DHT22;41509;53.108;6.100;2023-04-08T01:59:09;4.40;99.90
55642;DHT22;41509;53.108;6.100;2023-04-08T02:01:39;4.30;99.90
55642;DHT22;41509;53.108;6.100;2023-04-08T02:04:18;4.20;99.90
55642;DHT22;41509;53.108;6.100;2023-04-08T02:06:50;4.30;99.90
55642;DHT22;41509;53.108;6.100;2023-04-08T02:09:25;4.20;99.90
55642;DHT22;41509;53.108;6.100;2023-04-08T02:11:59;4.10;99.90
55642;DHT22;41509;53.108;6.100;2023-04-08T02:14:32;4.10;99.90
55642;DHT22;41509;53.108;6.100;2023-04-08T02:17:08;4.10;99.90
55642;DHT22;41509;53.108;6.100;2023-04-08T02:19:47;4.00;99.90
55642;DHT22;41509;53.108;6.100;2023-04-08T02:22:22;4.00;99.90
55642;DHT22;41509;53.108;6.100;2023-04-08T02:24:52;4.00;99.90
55642;DHT22;41509;53.108;6.100;2023-04-08T02:27:21;4.00;99.90
55642;DHT22;41509;53.108;6.100;2023-04-08T02:30:01;3.90;99.90
55642;DHT22;41509;53.108;6.100;2023-04-08T02:32:29;3.90;99.90
55642;DHT22;41509;53.108;6.100;2023-04-08T02:35:01;3.90;99.90
55642;DHT22;41509;53.108;6.100;2023-04-08T02:37:28;3.80;99.90
55642;DHT22;41509;53.108;6.100;2023-04-08T02:40:00;3.80;99.90
55642;DHT22;41509;53.108;6.100;2023-04-08T02:42:26;3.80;99.90
55642;DHT22;41509;53.108;6.100;2023-04-08T02:44:57;3.80;99.90
55642;DHT22;41509;53.108;6.100;2023-04-08T02:47:22;3.80;99.90
55642;DHT22;41509;53.108;6.100;2023-04-08T02:49:51;3.80;99.90
55642;DHT22;41509;53.108;6.100;2023-04-08T02:52:20;3.80;99.90
55642;DHT22;41509;53.108;6.100;2023-04-08T02:54:48;3.80;99.90
55642;DHT22;41509;53.108;6.100;2023-04-08T02:57:14;3.80;99.90
55642;DHT22;41509;53.108;6.100;2023-04-08T02:59:41;3.80;99.90
55642;DHT22;41509;53.108;6.100;2023-04-08T03:02:07;3.70;99.90
55642;DHT22;41509;53.108;6.100;2023-04-08T03:04:38;3.70;99.90
55642;DHT22;41509;53.108;6.100;2023-04-08T03:07:03;3.80;99.90
55642;DHT22;41509;53.108;6.100;2023-04-08T03:09:34;3.70;99.90
55642;DHT22;41509;53.108;6.100;2023-04-08T03:12:00;3.70;99.90
55642;DHT22;41509;53.108;6.100;2023-04-08T03:14:30;3.70;99.90
55642;DHT22;41509;53.108;6.100;2023-04-08T03:16:58;3.70;99.90
55642;DHT22;41509;53.108;6.100;2023-04-08T03:19:27;3.70;99.90
55642;DHT22;41509;53.108;6.100;2023-04-08T03:21:53;3.60;99.90
55642;DHT22;41509;53.108;6.100;2023-04-08T03:24:18;3.60;99.90
55642;DHT22;41509;53.108;6.100;2023-04-08T03:26:49;3.60;99.90
55642;DHT22;41509;53.108;6.100;2023-04-08T03:29:15;3.60;99.90
55642;DHT22;41509;53.108;6.100;2023-04-08T03:31:41;3.60;99.90
55642;DHT22;41509;53.108;6.100;2023-04-08T03:34:09;3.60;99.90
55642;DHT22;41509;53.108;6.100;2023-04-08T03:36:41;3.60;99.90
55642;DHT22;41509;53.108;6.100;2023-04-08T03:39:11;3.50;99.90
55642;DHT22;41509;53.108;6.100;2023-04-08T03:41:37;3.50;99.90
55642;DHT22;41509;53.108;6.100;2023-04-08T03:44:05;3.40;99.90
55642;DHT22;41509;53.108;6.100;2023-04-08T03:46:34;3.50;99.90
55642;DHT22;41509;53.108;6.100;2023-04-08T03:49:02;3.50;99.90
55642;DHT22;41509;53.108;6.100;2023-04-08T03:51:28;3.40;99.90
55642;DHT22;41509;53.108;6.100;2023-04-08T03:53:56;3.40;99.90
55642;DHT22;41509;53.108;6.100;2023-04-08T03:56:22;3.40;99.90
55642;DHT22;41509;53.108;6.100;2023-04-08T03:58:49;3.40;99.90
55642;DHT22;41509;53.108;6.100;2023-04-08T04:01:15;3.50;99.90
55642;DHT22;41509;53.108;6.100;2023-04-08T04:03:41;3.40;99.90
55642;DHT22;41509;53.108;6.100;2023-04-08T04:06:06;3.40;99.90
55642;DHT22;41509;53.108;6.100;2023-04-08T04:08:32;3.40;99.90
55642;DHT22;41509;53.108;6.100;2023-04-08T04:11:00;3.40;99.90
55642;DHT22;41509;53.108;6.100;2023-04-08T04:13:29;3.40;99.90
55642;DHT22;41509;53.108;6.100;2023-04-08T04:15:58;3.30;99.90
55642;DHT22;41509;53.108;6.100;2023-04-08T04:18:24;3.30;99.90
55642;DHT22;41509;53.108;6.100;2023-04-08T04:20:57;3.40;99.90
55642;DHT22;41509;53.108;6.100;2023-04-08T04:23:25;3.20;99.90
55642;DHT22;41509;53.108;6.100;2023-04-08T04:25:51;3.30;99.90
55642;DHT22;41509;53.108;6.100;2023-04-08T04:28:19;3.30;99.90
55642;DHT22;41509;53.108;6.100;2023-04-08T04:30:47;3.30;99.90
55642;DHT22;41509;53.108;6.100;2023-04-08T04:33:22;3.30;99.90
55642;DHT22;41509;53.108;6.100;2023-04-08T04:35:47;3.20;99.90
55642;DHT22;41509;53.108;6.100;2023-04-08T04:38:15;3.20;99.90
55642;DHT22;41509;53.108;6.100;2023-04-08T04:40:41;3.20;99.90
55642;DHT22;41509;53.108;6.100;2023-04-08T04:43:08;3.30;99.90
55642;DHT22;41509;53.108;6.100;2023-04-08T04:45:34;3.30;99.90
55642;DHT22;41509;53.108;6.100;2023-04-08T04:48:00;3.20;99.90
55642;DHT22;41509;53.108;6.100;2023-04-08T04:50:28;3.20;99.90
55642;DHT22;41509;53.108;6.100;2023-04-08T04:52:54;3.30;99.90
55642;DHT22;41509;53.108;6.100;2023-04-08T04:55:20;3.20;99.90
55642;DHT22;41509;53.108;6.100;2023-04-08T04:57:49;3.20;99.90
55642;DHT22;41509;53.108;6.100;2023-04-08T05:00:26;3.20;99.90
55642;DHT22;41509;53.108;6.100;2023-04-08T05:02:52;3.10;99.90
55642;DHT22;41509;53.108;6.100;2023-04-08T05:05:32;3.10;99.90
55642;DHT22;41509;53.108;6.100;2023-04-08T05:08:05;3.10;99.90
55642;DHT22;41509;53.108;6.100;2023-04-08T05:10:40;3.10;99.90
55642;DHT22;41509;53.108;6.100;2023-04-08T05:13:06;3.20;99.90
55642;DHT22;41509;53.108;6.100;2023-04-08T05:15:34;3.10;99.90
55642;DHT22;41509;53.108;6.100;2023-04-08T05:18:00;3.10;99.90
55642;DHT22;41509;53.108;6.100;2023-04-08T05:20:29;3.00;99.90
55642;DHT22;41509;53.108;6.100;2023-04-08T05:22:55;3.10;99.90
55642;DHT22;41509;53.108;6.100;2023-04-08T05:25:20;3.10;99.90
55642;DHT22;41509;53.108;6.100;2023-04-08T05:27:49;3.10;99.90
55642;DHT22;41509;53.108;6.100;2023-04-08T05:30:17;3.10;99.90
55642;DHT22;41509;53.108;6.100;2023-04-08T05:32:46;3.10;99.90
55642;DHT22;41509;53.108;6.100;2023-04-08T05:35:12;3.10;99.90
55642;DHT22;41509;53.108;6.100;2023-04-08T05:37:42;3.10;99.90
55642;DHT22;41509;53.108;6.100;2023-04-08T05:40:08;3.10;99.90
55642;DHT22;41509;53.108;6.100;2023-04-08T05:42:36;3.10;99.90
55642;DHT22;41509;53.108;6.100;2023-04-08T05:45:05;3.10;99.90
55642;DHT22;41509;53.108;6.100;2023-04-08T05:47:31;3.10;99.90
55642;DHT22;41509;53.108;6.100;2023-04-08T05:50:00;3.10;99.90
55642;DHT22;41509;53.108;6.100;2023-04-08T05:52:26;3.10;99.90
55642;DHT22;41509;53.108;6.100;2023-04-08T05:54:54;3.20;99.90
55642;DHT22;41509;53.108;6.100;2023-04-08T05:57:32;3.20;99.90
55642;DHT22;41509;53.108;6.100;2023-04-08T06:00:01;3.20;99.90
55642;DHT22;41509;53.108;6.100;2023-04-08T06:02:29;3.20;99.90
55642;DHT22;41509;53.108;6.100;2023-04-08T06:09:58;3.30;99.90
55642;DHT22;41509;53.108;6.100;2023-04-08T06:12:23;3.30;99.90
55642;DHT22;41509;53.108;6.100;2023-04-08T06:14:56;3.30;99.90
55642;DHT22;41509;53.108;6.100;2023-04-08T06:17:22;3.40;99.90
55642;DHT22;41509;53.108;6.100;2023-04-08T06:19:47;3.40;99.90
55642;DHT22;41509;53.108;6.100;2023-04-08T06:22:13;3.40;99.90
55642;DHT22;41509;53.108;6.100;2023-04-08T06:24:38;3.50;99.90
55642;DHT22;41509;53.108;6.100;2023-04-08T06:27:04;3.50;99.90
55642;DHT22;41509;53.108;6.100;2023-04-08T06:29:31;3.60;99.90
55642;DHT22;41509;53.108;6.100;2023-04-08T06:31:58;3.80;99.90
55642;DHT22;41509;53.108;6.100;2023-04-08T06:34:23;3.80;99.90
55642;DHT22;41509;53.108;6.100;2023-04-08T06:36:49;3.90;99.90
55642;DHT22;41509;53.108;6.100;2023-04-08T06:39:15;4.10;99.90
55642;DHT22;41509;53.108;6.100;2023-04-08T06:41:41;4.20;99.90
55642;DHT22;41509;53.108;6.100;2023-04-08T06:44:07;4.30;99.90
55642;DHT22;41509;53.108;6.100;2023-04-08T06:46:33;4.40;99.90
55642;DHT22;41509;53.108;6.100;2023-04-08T06:48:58;4.60;99.90
55642;DHT22;41509;53.108;6.100;2023-04-08T06:51:24;4.70;99.90
55642;DHT22;41509;53.108;6.100;2023-04-08T06:53:50;4.80;99.90
55642;DHT22;41509;53.108;6.100;2023-04-08T06:56:16;4.80;99.90
55642;DHT22;41509;53.108;6.100;2023-04-08T06:58:42;4.90;99.90
55642;DHT22;41509;53.108;6.100;2023-04-08T07:01:07;5.00;99.90
55642;DHT22;41509;53.108;6.100;2023-04-08T07:03:33;5.10;99.90
55642;DHT22;41509;53.108;6.100;2023-04-08T07:05:58;5.10;99.90
55642;DHT22;41509;53.108;6.100;2023-04-08T07:08:24;5.20;99.90
55642;DHT22;41509;53.108;6.100;2023-04-08T07:10:51;5.30;99.90
55642;DHT22;41509;53.108;6.100;2023-04-08T07:13:18;5.40;99.90
55642;DHT22;41509;53.108;6.100;2023-04-08T07:15:43;5.50;99.90
55642;DHT22;41509;53.108;6.100;2023-04-08T07:18:09;5.60;99.90
55642;DHT22;41509;53.108;6.100;2023-04-08T07:20:35;5.70;99.90
55642;DHT22;41509;53.108;6.100;2023-04-08T07:23:03;5.90;99.90
55642;DHT22;41509;53.108;6.100;2023-04-08T07:25:28;6.00;99.90
55642;DHT22;41509;53.108;6.100;2023-04-08T07:27:54;6.00;99.90
55642;DHT22;41509;53.108;6.100;2023-04-08T07:30:20;6.10;99.90
55642;DHT22;41509;53.108;6.100;2023-04-08T07:32:46;6.10;99.90
55642;DHT22;41509;53.108;6.100;2023-04-08T07:35:12;6.20;99.90
55642;DHT22;41509;53.108;6.100;2023-04-08T07:37:38;6.20;99.90
55642;DHT22;41509;53.108;6.100;2023-04-08T07:40:04;6.30;99.90
55642;DHT22;41509;53.108;6.100;2023-04-08T07:42:32;6.30;99.90
55642;DHT22;41509;53.108;6.100;2023-04-08T07:44:58;6.40;99.90
55642;DHT22;41509;53.108;6.100;2023-04-08T07:47:23;6.50;99.90
55642;DHT22;41509;53.108;6.100;2023-04-08T07:49:49;6.60;99.90
55642;DHT22;41509;53.108;6.100;2023-04-08T07:52:15;6.70;99.90
55642;DHT22;41509;53.108;6.100;2023-04-08T07:54:42;6.80;99.90
55642;DHT22;41509;53.108;6.100;2023-04-08T07:57:08;6.90;99.90
55642;DHT22;41509;53.108;6.100;2023-04-08T07:59:34;7.00;99.90
55642;DHT22;41509;53.108;6.100;2023-04-08T08:02:00;7.20;99.90
55642;DHT22;41509;53.108;6.100;2023-04-08T08:04:26;7.30;99.90
55642;DHT22;41509;53.108;6.100;2023-04-08T08:06:51;7.40;99.90
55642;DHT22;41509;53.108;6.100;2023-04-08T08:09:17;7.50;99.90
55642;DHT22;41509;53.108;6.100;2023-04-08T08:11:42;7.60;99.90
55642;DHT22;41509;53.108;6.100;2023-04-08T08:14:08;7.60;99.90
55642;DHT22;41509;53.108;6.100;2023-04-08T08:16:36;7.70;99.90
55642;DHT22;41509;53.108;6.100;2023-04-08T08:19:03;7.70;99.90
55642;DHT22;41509;53.108;6.100;2023-04-08T08:21:30;7.80;99.90
55642;DHT22;41509;53.108;6.100;2023-04-08T08:23:56;7.80;99.90
55642;DHT22;41509;53.108;6.100;2023-04-08T08:26:22;7.90;99.90
55642;DHT22;41509;53.108;6.100;2023-04-08T08:28:47;7.90;99.90
55642;DHT22;41509;53.108;6.100;2023-04-08T08:31:13;7.90;99.90
55642;DHT22;41509;53.108;6.100;2023-04-08T08:33:39;8.00;99.90
55642;DHT22;41509;53.108;6.100;2023-04-08T08:36:05;8.00;99.90
55642;DHT22;41509;53.108;6.100;2023-04-08T08:38:31;8.10;99.90
55642;DHT22;41509;53.108;6.100;2023-04-08T08:40:58;8.30;99.90
55642;DHT22;41509;53.108;6.100;2023-04-08T08:43:24;8.40;99.90
55642;DHT22;41509;53.108;6.100;2023-04-08T08:45:50;8.50;99.90
55642;DHT22;41509;53.108;6.100;2023-04-08T08:48:16;8.50;99.90
55642;DHT22;41509;53.108;6.100;2023-04-08T08:50:42;8.60;99.90
55642;DHT22;41509;53.108;6.100;2023-04-08T08:53:08;8.60;99.90
55642;DHT22;41509;53.108;6.100;2023-04-08T08:55:33;8.70;99.90
55642;DHT22;41509;53.108;6.100;2023-04-08T08:58:00;8.80;99.90
55642;DHT22;41509;53.108;6.100;2023-04-08T09:00:33;9.00;99.90
55642;DHT22;41509;53.108;6.100;2023-04-08T09:03:18;9.20;99.90
55642;DHT22;41509;53.108;6.100;2023-04-08T09:08:31;9.50;99.90
55642;DHT22;41509;53.108;6.100;2023-04-08T09:11:17;9.60;99.90
55642;DHT22;41509;53.108;6.100;2023-04-08T09:13:44;9.70;99.90
55642;DHT22;41509;53.108;6.100;2023-04-08T09:16:12;9.60;99.90
55642;DHT22;41509;53.108;6.100;2023-04-08T09:18:39;9.60;99.90
55642;DHT22;41509;53.108;6.100;2023-04-08T09:21:09;9.50;99.90
55642;DHT22;41509;53.108;6.100;2023-04-08T09:23:46;9.50;99.90
55642;DHT22;41509;53.108;6.100;2023-04-08T09:26:13;9.60;99.90
55642;DHT22;41509;53.108;6.100;2023-04-08T09:28:40;9.70;99.90
55642;DHT22;41509;53.108;6.100;2023-04-08T09:31:23;9.90;99.90
55642;DHT22;41509;53.108;6.100;2023-04-08T09:33:51;10.00;99.90
55642;DHT22;41509;53.108;6.100;2023-04-08T09:36:17;10.10;99.90
55642;DHT22;41509;53.108;6.100;2023-04-08T09:38:43;10.30;99.90
55642;DHT22;41509;53.108;6.100;2023-04-08T09:41:15;10.40;99.90
55642;DHT22;41509;53.108;6.100;2023-04-08T09:43:47;10.40;99.90
55642;DHT22;41509;53.108;6.100;2023-04-08T09:46:15;10.40;99.90
55642;DHT22;41509;53.108;6.100;2023-04-08T09:48:48;10.40;99.90
55642;DHT22;41509;53.108;6.100;2023-04-08T09:51:18;10.40;99.90
55642;DHT22;41509;53.108;6.100;2023-04-08T09:53:46;10.30;99.90
55642;DHT22;41509;53.108;6.100;2023-04-08T09:56:13;10.30;99.90
55642;DHT22;41509;53.108;6.100;2023-04-08T09:58:48;10.20;99.90
55642;DHT22;41509;53.108;6.100;2023-04-08T10:01:21;10.10;99.90
55642;DHT22;41509;53.108;6.100;2023-04-08T10:03:53;10.00;99.90
55642;DHT22;41509;53.108;6.100;2023-04-08T10:06:21;10.00;99.90
55642;DHT22;41509;53.108;6.100;2023-04-08T10:08:49;9.90;99.90
55642;DHT22;41509;53.108;6.100;2023-04-08T10:11:18;9.90;99.90
55642;DHT22;41509;53.108;6.100;2023-04-08T10:13:44;9.80;99.90
55642;DHT22;41509;53.108;6.100;2023-04-08T10:16:17;9.70;99.90
55642;DHT22;41509;53.108;6.100;2023-04-08T10:18:43;9.70;99.90
55642;DHT22;41509;53.108;6.100;2023-04-08T10:21:46;9.70;99.90
55642;DHT22;41509;53.108;6.100;2023-04-08T10:24:13;9.70;99.90
55642;DHT22;41509;53.108;6.100;2023-04-08T10:26:44;9.60;99.90
55642;DHT22;41509;53.108;6.100;2023-04-08T10:31:54;9.70;99.90
55642;DHT22;41509;53.108;6.100;2023-04-08T10:34:23;9.70;99.90
55642;DHT22;41509;53.108;6.100;2023-04-08T10:36:49;9.60;99.90
55642;DHT22;41509;53.108;6.100;2023-04-08T10:39:17;9.70;99.90
55642;DHT22;41509;53.108;6.100;2023-04-08T10:41:47;9.70;99.90
55642;DHT22;41509;53.108;6.100;2023-04-08T10:44:17;9.70;99.90
55642;DHT22;41509;53.108;6.100;2023-04-08T10:46:44;9.60;99.90
55642;DHT22;41509;53.108;6.100;2023-04-08T10:49:11;9.60;99.90
55642;DHT22;41509;53.108;6.100;2023-04-08T10:51:38;9.60;99.90
55642;DHT22;41509;53.108;6.100;2023-04-08T10:54:06;9.50;99.90
55642;DHT22;41509;53.108;6.100;2023-04-08T10:56:32;9.50;99.90
55642;DHT22;41509;53.108;6.100;2023-04-08T10:58:58;9.50;99.90
55642;DHT22;41509;53.108;6.100;2023-04-08T11:01:25;9.50;99.90
55642;DHT22;41509;53.108;6.100;2023-04-08T11:03:51;9.50;99.90
55642;DHT22;41509;53.108;6.100;2023-04-08T11:06:17;9.50;99.90
55642;DHT22;41509;53.108;6.100;2023-04-08T11:08:44;9.50;99.90
55642;DHT22;41509;53.108;6.100;2023-04-08T11:11:10;9.50;99.90
55642;DHT22;41509;53.108;6.100;2023-04-08T11:13:36;9.60;99.90
55642;DHT22;41509;53.108;6.100;2023-04-08T11:16:03;9.60;99.90
55642;DHT22;41509;53.108;6.100;2023-04-08T11:18:30;9.60;99.90
55642;DHT22;41509;53.108;6.100;2023-04-08T11:20:57;9.70;99.90
55642;DHT22;41509;53.108;6.100;2023-04-08T11:23:26;9.70;99.90
55642;DHT22;41509;53.108;6.100;2023-04-08T11:25:52;9.80;99.90
55642;DHT22;41509;53.108;6.100;2023-04-08T11:28:18;9.70;99.90
55642;DHT22;41509;53.108;6.100;2023-04-08T11:30:45;9.70;99.90
55642;DHT22;41509;53.108;6.100;2023-04-08T11:33:13;9.70;99.90
55642;DHT22;41509;53.108;6.100;2023-04-08T11:35:39;9.70;99.90
55642;DHT22;41509;53.108;6.100;2023-04-08T11:38:08;9.70;99.90
55642;DHT22;41509;53.108;6.100;2023-04-08T11:40:35;9.80;99.90
55642;DHT22;41509;53.108;6.100;2023-04-08T11:43:11;9.80;99.90
55642;DHT22;41509;53.108;6.100;2023-04-08T11:45:38;9.80;99.90
55642;DHT22;41509;53.108;6.100;2023-04-08T11:48:11;9.90;99.90
55642;DHT22;41509;53.108;6.100;2023-04-08T11:50:38;9.90;99.90
55642;DHT22;41509;53.108;6.100;2023-04-08T11:53:19;10.00;99.90
55642;DHT22;41509;53.108;6.100;2023-04-08T11:55:45;10.10;99.90
55642;DHT22;41509;53.108;6.100;2023-04-08T11:58:11;10.20;99.90
55642;DHT22;41509;53.108;6.100;2023-04-08T12:00:36;10.30;99.90
55642;DHT22;41509;53.108;6.100;2023-04-08T12:03:03;10.30;99.90
55642;DHT22;41509;53.108;6.100;2023-04-08T12:07:59;10.30;99.90
55642;DHT22;41509;53.108;6.100;2023-04-08T12:10:27;10.40;99.90
55642;DHT22;41509;53.108;6.100;2023-04-08T12:12:52;10.30;99.90
55642;DHT22;41509;53.108;6.100;2023-04-08T12:15:18;10.30;99.90
55642;DHT22;41509;53.108;6.100;2023-04-08T12:17:44;10.30;99.90
55642;DHT22;41509;53.108;6.100;2023-04-08T12:20:10;10.30;99.90
55642;DHT22;41509;53.108;6.100;2023-04-08T12:22:37;10.30;99.90
55642;DHT22;41509;53.108;6.100;2023-04-08T12:25:02;10.30;99.90
55642;DHT22;41509;53.108;6.100;2023-04-08T12:27:29;10.20;99.90
55642;DHT22;41509;53.108;6.100;2023-04-08T12:29:58;10.30;99.90
55642;DHT22;41509;53.108;6.100;2023-04-08T12:32:23;10.30;99.90
55642;DHT22;41509;53.108;6.100;2023-04-08T12:34:50;10.30;99.90
55642;DHT22;41509;53.108;6.100;2023-04-08T12:37:16;10.30;99.90
55642;DHT22;41509;53.108;6.100;2023-04-08T12:39:41;10.40;99.90
55642;DHT22;41509;53.108;6.100;2023-04-08T12:42:07;10.40;99.90
55642;DHT22;41509;53.108;6.100;2023-04-08T12:44:33;10.40;99.90
55642;DHT22;41509;53.108;6.100;2023-04-08T12:46:58;10.40;99.90
55642;DHT22;41509;53.108;6.100;2023-04-08T12:49:26;10.40;99.90
55642;DHT22;41509;53.108;6.100;2023-04-08T12:51:52;10.40;99.90
55642;DHT22;41509;53.108;6.100;2023-04-08T12:54:18;10.40;99.90
55642;DHT22;41509;53.108;6.100;2023-04-08T12:56:44;10.40;99.90
55642;DHT22;41509;53.108;6.100;2023-04-08T12:59:13;10.40;99.90
55642;DHT22;41509;53.108;6.100;2023-04-08T13:01:42;10.40;99.90
55642;DHT22;41509;53.108;6.100;2023-04-08T13:04:08;10.40;99.90
55642;DHT22;41509;53.108;6.100;2023-04-08T13:06:33;10.40;99.90
55642;DHT22;41509;53.108;6.100;2023-04-08T13:08:59;10.40;99.90
55642;DHT22;41509;53.108;6.100;2023-04-08T13:11:25;10.40;99.90
55642;DHT22;41509;53.108;6.100;2023-04-08T13:13:50;10.40;99.90
55642;DHT22;41509;53.108;6.100;2023-04-08T13:16:16;10.40;99.90
55642;DHT22;41509;53.108;6.100;2023-04-08T13:18:42;10.40;99.90
55642;DHT22;41509;53.108;6.100;2023-04-08T13:21:08;10.40;99.90
55642;DHT22;41509;53.108;6.100;2023-04-08T13:23:34;10.40;99.90
55642;DHT22;41509;53.108;6.100;2023-04-08T13:25:59;10.40;99.90
55642;DHT22;41509;53.108;6.100;2023-04-08T13:28:25;10.40;99.90
55642;DHT22;41509;53.108;6.100;2023-04-08T13:30:51;10.50;99.90
55642;DHT22;41509;53.108;6.100;2023-04-08T13:33:18;10.40;99.90
55642;DHT22;41509;53.108;6.100;2023-04-08T13:35:43;10.40;99.90
55642;DHT22;41509;53.108;6.100;2023-04-08T13:38:09;10.50;99.90
55642;DHT22;41509;53.108;6.100;2023-04-08T13:40:38;10.50;99.90
55642;DHT22;41509;53.108;6.100;2023-04-08T13:43:05;10.50;99.90
55642;DHT22;41509;53.108;6.100;2023-04-08T13:45:33;10.50;99.90
55642;DHT22;41509;53.108;6.100;2023-04-08T13:47:58;10.50;99.90
55642;DHT22;41509;53.108;6.100;2023-04-08T13:50:24;10.40;99.90
55642;DHT22;41509;53.108;6.100;2023-04-08T13:52:50;10.50;99.90
55642;DHT22;41509;53.108;6.100;2023-04-08T13:55:16;10.50;99.90
55642;DHT22;41509;53.108;6.100;2023-04-08T13:57:41;10.50;99.90
55642;DHT22;41509;53.108;6.100;2023-04-08T14:00:07;10.50;99.90
55642;DHT22;41509;53.108;6.100;2023-04-08T14:02:33;10.50;99.90
55642;DHT22;41509;53.108;6.100;2023-04-08T14:04:59;10.50;99.90
55642;DHT22;41509;53.108;6.100;2023-04-08T14:07:24;10.50;99.90
55642;DHT22;41509;53.108;6.100;2023-04-08T14:09:50;10.50;99.90
55642;DHT22;41509;53.108;6.100;2023-04-08T14:12:16;10.60;99.90
55642;DHT22;41509;53.108;6.100;2023-04-08T14:14:41;10.50;99.90
55642;DHT22;41509;53.108;6.100;2023-04-08T14:17:07;10.50;99.90
55642;DHT22;41509;53.108;6.100;2023-04-08T14:19:33;10.50;99.90
55642;DHT22;41509;53.108;6.100;2023-04-08T14:21:58;10.50;99.90
55642;DHT22;41509;53.108;6.100;2023-04-08T14:24:24;10.60;99.90
55642;DHT22;41509;53.108;6.100;2023-04-08T14:26:49;10.60;99.90
55642;DHT22;41509;53.108;6.100;2023-04-08T14:29:15;10.60;99.90
55642;DHT22;41509;53.108;6.100;2023-04-08T14:31:41;10.70;99.90
55642;DHT22;41509;53.108;6.100;2023-04-08T14:34:06;10.70;99.90
55642;DHT22;41509;53.108;6.100;2023-04-08T14:36:32;10.70;99.90
55642;DHT22;41509;53.108;6.100;2023-04-08T14:38:58;10.80;99.90
55642;DHT22;41509;53.108;6.100;2023-04-08T14:41:23;10.80;99.90
55642;DHT22;41509;53.108;6.100;2023-04-08T14:43:52;10.70;99.90
55642;DHT22;41509;53.108;6.100;2023-04-08T14:46:20;10.70;99.90
55642;DHT22;41509;53.108;6.100;2023-04-08T14:48:46;10.80;99.90
55642;DHT22;41509;53.108;6.100;2023-04-08T14:51:12;10.70;99.90
55642;DHT22;41509;53.108;6.100;2023-04-08T14:53:38;10.70;99.90
55642;DHT22;41509;53.108;6.100;2023-04-08T14:56:06;10.70;99.90
55642;DHT22;41509;53.108;6.100;2023-04-08T14:58:32;10.80;99.90
55642;DHT22;41509;53.108;6.100;2023-04-08T15:00:58;10.80;99.90
55642;DHT22;41509;53.108;6.100;2023-04-08T15:03:24;10.90;99.90
55642;DHT22;41509;53.108;6.100;2023-04-08T15:05:49;10.90;99.90
55642;DHT22;41509;53.108;6.100;2023-04-08T15:08:15;10.90;99.90
55642;DHT22;41509;53.108;6.100;2023-04-08T15:10:41;10.90;99.90
55642;DHT22;41509;53.108;6.100;2023-04-08T15:13:06;10.90;99.90
55642;DHT22;41509;53.108;6.100;2023-04-08T15:15:34;10.90;99.90
55642;DHT22;41509;53.108;6.100;2023-04-08T15:18:00;10.90;99.90
55642;DHT22;41509;53.108;6.100;2023-04-08T15:20:27;10.90;99.90
55642;DHT22;41509;53.108;6.100;2023-04-08T15:22:58;11.00;99.90
55642;DHT22;41509;53.108;6.100;2023-04-08T15:25:24;11.10;99.90
55642;DHT22;41509;53.108;6.100;2023-04-08T15:27:50;11.10;99.90
55642;DHT22;41509;53.108;6.100;2023-04-08T15:30:16;11.10;99.90
55642;DHT22;41509;53.108;6.100;2023-04-08T15:32:41;11.30;99.90
55642;DHT22;41509;53.108;6.100;2023-04-08T15:35:07;11.30;99.90
55642;DHT22;41509;53.108;6.100;2023-04-08T15:37:33;11.30;99.90
55642;DHT22;41509;53.108;6.100;2023-04-08T15:39:59;11.30;99.90
55642;DHT22;41509;53.108;6.100;2023-04-08T15:42:27;11.40;99.90
55642;DHT22;41509;53.108;6.100;2023-04-08T15:44:52;11.40;99.90
55642;DHT22;41509;53.108;6.100;2023-04-08T15:47:18;11.40;99.90
55642;DHT22;41509;53.108;6.100;2023-04-08T15:49:50;11.30;99.90
55642;DHT22;41509;53.108;6.100;2023-04-08T15:52:16;11.40;99.90
55642;DHT22;41509;53.108;6.100;2023-04-08T15:54:42;11.50;99.90
55642;DHT22;41509;53.108;6.100;2023-04-08T15:57:07;11.60;99.90
55642;DHT22;41509;53.108;6.100;2023-04-08T15:59:33;11.60;99.90
55642;DHT22;41509;53.108;6.100;2023-04-08T16:01:59;11.60;99.90